TUI6LM LCLK-EDDL
Flight info
| Callsign | TUI6LM |
|---|---|
| Flight time | N/A |
| Altitude | 36000 |
| Route | PHA M31 GENOS DCT PEDER DCT EVENO DCT BENEM UN127 RIKSO DCT EVIVI L863 OKANA/N0447F380 DCT RAVAK DCT BGD DCT NIVIS DCT LULIK DCT BABIT DCT SASAL DCT DEXIT DCT RUDNO DCT SULUS T852 TESDU DCT AMETU T852 TINSA T854 DOMUX DOMUX1A |
| Aircraft | B738/M-SDE2E3FGHIRWXY/LB1 |
Departure
| Time | N/A |
|---|---|
| Airport | Larnaca International Airport (LCLK) |
Arrival
| Time | 2026-05-03 21:17 |
|---|---|
| Airport | Düsseldorf Airport (EDDL) |
| Time | Latitude | Longitude | Altitude | Speed | Heading |
|---|---|---|---|---|---|
| 2026-05-03 20:15 | 48.01531 | 15.14286 | 35940 ft | 441 kts | 308° |
| 2026-05-03 20:15 | 48.05331 | 15.07179 | 35940 ft | 442 kts | 308° |
| 2026-05-03 20:16 | 48.09095 | 15.00119 | 35939 ft | 421 kts | 308° |
| 2026-05-03 20:16 | 48.10891 | 14.96745 | 35940 ft | 407 kts | 308° |
| 2026-05-03 20:16 | 48.12614 | 14.93502 | 35943 ft | 406 kts | 308° |
| 2026-05-03 20:17 | 48.16180 | 14.86782 | 35941 ft | 414 kts | 308° |
| 2026-05-03 20:17 | 48.19747 | 14.80040 | 35940 ft | 416 kts | 308° |
| 2026-05-03 20:18 | 48.23333 | 14.73249 | 35940 ft | 414 kts | 308° |
| 2026-05-03 20:18 | 48.26872 | 14.66529 | 35940 ft | 414 kts | 308° |
| 2026-05-03 20:19 | 48.30452 | 14.59713 | 35940 ft | 416 kts | 308° |
| 2026-05-03 20:19 | 48.34022 | 14.52900 | 35940 ft | 416 kts | 308° |
| 2026-05-03 20:20 | 48.37586 | 14.46079 | 35940 ft | 415 kts | 308° |
| 2026-05-03 20:20 | 48.41133 | 14.39276 | 35940 ft | 415 kts | 308° |
| 2026-05-03 20:21 | 48.44691 | 14.32434 | 35940 ft | 416 kts | 307° |
| 2026-05-03 20:21 | 48.48226 | 14.25617 | 35940 ft | 416 kts | 307° |
| 2026-05-03 20:22 | 48.51779 | 14.18750 | 35940 ft | 414 kts | 307° |
| 2026-05-03 20:22 | 48.55307 | 14.11915 | 35940 ft | 414 kts | 307° |
| 2026-05-03 20:23 | 48.58823 | 14.05085 | 35940 ft | 414 kts | 307° |
| 2026-05-03 20:23 | 48.62348 | 13.98218 | 35940 ft | 414 kts | 307° |
| 2026-05-03 20:24 | 48.65850 | 13.91380 | 35940 ft | 414 kts | 307° |
| 2026-05-03 20:24 | 48.69376 | 13.84477 | 35940 ft | 414 kts | 307° |
| 2026-05-03 20:25 | 48.72865 | 13.77632 | 35940 ft | 414 kts | 307° |
| 2026-05-03 20:25 | 48.76372 | 13.70731 | 35940 ft | 415 kts | 307° |
| 2026-05-03 20:26 | 48.79876 | 13.63746 | 35940 ft | 417 kts | 306° |
| 2026-05-03 20:26 | 48.83353 | 13.56774 | 35940 ft | 417 kts | 306° |
| 2026-05-03 20:27 | 48.86845 | 13.49764 | 35967 ft | 416 kts | 306° |
| 2026-05-03 20:27 | 48.90319 | 13.42773 | 35967 ft | 416 kts | 306° |
| 2026-05-03 20:28 | 48.93779 | 13.35789 | 35967 ft | 416 kts | 306° |
| 2026-05-03 20:28 | 48.97260 | 13.28748 | 35967 ft | 416 kts | 306° |
| 2026-05-03 20:29 | 49.00724 | 13.21722 | 35967 ft | 417 kts | 306° |
| 2026-05-03 20:29 | 49.04208 | 13.14638 | 35967 ft | 419 kts | 305° |
| 2026-05-03 20:30 | 49.07684 | 13.07549 | 35967 ft | 419 kts | 305° |
| 2026-05-03 20:30 | 49.11155 | 13.00454 | 35967 ft | 419 kts | 305° |
| 2026-05-03 20:31 | 49.14630 | 12.93330 | 35967 ft | 419 kts | 305° |
| 2026-05-03 20:31 | 49.18086 | 12.86227 | 35967 ft | 418 kts | 305° |
| 2026-05-03 20:32 | 49.21540 | 12.79109 | 35967 ft | 418 kts | 305° |
| 2026-05-03 20:32 | 49.25009 | 12.71942 | 35982 ft | 418 kts | 305° |
| 2026-05-03 20:33 | 49.28467 | 12.64776 | 35967 ft | 420 kts | 305° |
| 2026-05-03 20:33 | 49.31929 | 12.57584 | 35981 ft | 421 kts | 305° |
| 2026-05-03 20:34 | 49.35304 | 12.50313 | 35981 ft | 420 kts | 301° |
| 2026-05-03 20:34 | 49.38404 | 12.42743 | 35981 ft | 419 kts | 301° |
| 2026-05-03 20:35 | 49.41549 | 12.35236 | 35981 ft | 419 kts | 301° |
| 2026-05-03 20:35 | 49.44705 | 12.27677 | 35981 ft | 419 kts | 301° |
| 2026-05-03 20:36 | 49.47828 | 12.20184 | 36072 ft | 417 kts | 300° |
| 2026-05-03 20:36 | 49.50968 | 12.12632 | 36211 ft | 419 kts | 300° |
| 2026-05-03 20:37 | 49.54104 | 12.05068 | 36348 ft | 420 kts | 300° |
| 2026-05-03 20:37 | 49.57236 | 11.97497 | 36420 ft | 421 kts | 300° |
| 2026-05-03 20:38 | 49.60356 | 11.89934 | 36420 ft | 420 kts | 300° |
| 2026-05-03 20:38 | 49.63479 | 11.82342 | 36420 ft | 419 kts | 300° |
| 2026-05-03 20:39 | 49.66589 | 11.74756 | 36420 ft | 419 kts | 300° |
| 2026-05-03 20:39 | 49.69690 | 11.67172 | 36421 ft | 421 kts | 300° |
| 2026-05-03 20:40 | 49.72827 | 11.59481 | 36420 ft | 422 kts | 300° |
| 2026-05-03 20:40 | 49.75952 | 11.51797 | 36421 ft | 421 kts | 300° |
| 2026-05-03 20:41 | 49.79054 | 11.44146 | 36420 ft | 420 kts | 300° |
| 2026-05-03 20:41 | 49.82129 | 11.36538 | 36420 ft | 420 kts | 300° |
| 2026-05-03 20:42 | 49.85232 | 11.28841 | 36343 ft | 421 kts | 299° |
| 2026-05-03 20:42 | 49.88303 | 11.21203 | 36207 ft | 420 kts | 299° |
| 2026-05-03 20:43 | 49.91386 | 11.13510 | 36069 ft | 419 kts | 299° |
| 2026-05-03 20:43 | 49.94437 | 11.05873 | 35995 ft | 418 kts | 299° |
| 2026-05-03 20:44 | 49.97497 | 10.98193 | 35994 ft | 419 kts | 299° |
| 2026-05-03 20:44 | 50.00547 | 10.90516 | 35994 ft | 420 kts | 299° |
| 2026-05-03 20:45 | 50.03608 | 10.82788 | 35994 ft | 420 kts | 299° |
| 2026-05-03 20:45 | 50.06668 | 10.75042 | 35994 ft | 420 kts | 299° |
| 2026-05-03 20:46 | 50.09705 | 10.67358 | 35994 ft | 418 kts | 298° |
| 2026-05-03 20:46 | 50.12744 | 10.59704 | 35991 ft | 418 kts | 298° |
| 2026-05-03 20:47 | 50.15794 | 10.51980 | 35991 ft | 418 kts | 298° |
| 2026-05-03 20:47 | 50.18829 | 10.44277 | 35991 ft | 418 kts | 298° |
| 2026-05-03 20:48 | 50.21906 | 10.36605 | 35990 ft | 419 kts | 301° |
| 2026-05-03 20:48 | 50.25303 | 10.29191 | 35990 ft | 420 kts | 302° |
| 2026-05-03 20:49 | 50.28647 | 10.21744 | 35967 ft | 421 kts | 301° |
| 2026-05-03 20:49 | 50.32029 | 10.14162 | 35967 ft | 421 kts | 301° |
| 2026-05-03 20:50 | 50.35382 | 10.06644 | 35990 ft | 421 kts | 301° |
| 2026-05-03 20:50 | 50.38698 | 9.99169 | 35967 ft | 421 kts | 301° |
| 2026-05-03 20:51 | 50.42041 | 9.91611 | 35993 ft | 420 kts | 301° |
| 2026-05-03 20:51 | 50.45352 | 9.84103 | 35994 ft | 421 kts | 301° |
| 2026-05-03 20:52 | 50.48664 | 9.76570 | 35994 ft | 421 kts | 301° |
| 2026-05-03 20:52 | 50.51998 | 9.68969 | 35994 ft | 422 kts | 300° |
| 2026-05-03 20:53 | 50.55293 | 9.61429 | 35994 ft | 422 kts | 300° |
| 2026-05-03 20:53 | 50.58608 | 9.53820 | 35994 ft | 422 kts | 300° |
| 2026-05-03 20:54 | 50.61923 | 9.46193 | 35994 ft | 422 kts | 300° |
| 2026-05-03 20:54 | 50.66874 | 9.34756 | 35994 ft | 422 kts | 300° |
| 2026-05-03 20:55 | 50.70165 | 9.27129 | 35994 ft | 421 kts | 300° |
| 2026-05-03 20:55 | 50.73463 | 9.19462 | 35994 ft | 422 kts | 300° |
| 2026-05-03 20:56 | 50.76735 | 9.11832 | 35994 ft | 423 kts | 299° |
| 2026-05-03 20:56 | 50.78376 | 9.07998 | 35868 ft | 426 kts | 299° |
| 2026-05-03 20:56 | 50.80043 | 9.04097 | 35309 ft | 426 kts | 299° |
| 2026-05-03 20:57 | 50.81686 | 9.00245 | 34579 ft | 427 kts | 299° |
| 2026-05-03 20:57 | 50.83351 | 8.96343 | 33809 ft | 428 kts | 300° |
| 2026-05-03 20:57 | 50.85108 | 8.92527 | 32655 ft | 442 kts | 303° |
| 2026-05-03 20:57 | 50.86985 | 8.88596 | 30858 ft | 463 kts | 300° |
| 2026-05-03 20:58 | 50.88719 | 8.84411 | 29778 ft | 464 kts | 298° |
| 2026-05-03 20:58 | 50.90449 | 8.80042 | 28374 ft | 473 kts | 298° |
| 2026-05-03 20:58 | 50.92220 | 8.75684 | 27156 ft | 476 kts | 300° |
| 2026-05-03 20:58 | 50.94011 | 8.71366 | 25814 ft | 481 kts | 300° |
| 2026-05-03 20:59 | 50.95838 | 8.66962 | 24782 ft | 476 kts | 300° |
| 2026-05-03 20:59 | 50.97614 | 8.62679 | 24464 ft | 457 kts | 300° |
| 2026-05-03 20:59 | 50.99346 | 8.58500 | 23829 ft | 447 kts | 300° |
| 2026-05-03 20:59 | 51.01031 | 8.54419 | 23169 ft | 439 kts | 300° |
| 2026-05-03 21:00 | 51.02679 | 8.50427 | 22470 ft | 432 kts | 300° |
| 2026-05-03 21:00 | 51.03236 | 8.49078 | 22230 ft | 430 kts | 300° |
| 2026-05-03 21:00 | 51.05908 | 8.42597 | 21122 ft | 418 kts | 299° |
| 2026-05-03 21:00 | 51.07473 | 8.38800 | 20501 ft | 410 kts | 298° |
| 2026-05-03 21:01 | 51.09024 | 8.35028 | 19755 ft | 405 kts | 298° |
| 2026-05-03 21:01 | 51.10546 | 8.31321 | 19049 ft | 399 kts | 298° |
| 2026-05-03 21:01 | 51.12057 | 8.27635 | 18310 ft | 394 kts | 298° |
| 2026-05-03 21:01 | 51.13529 | 8.24040 | 17644 ft | 388 kts | 298° |
| 2026-05-03 21:02 | 51.14973 | 8.20511 | 17158 ft | 377 kts | 299° |
| 2026-05-03 21:02 | 51.16391 | 8.17042 | 16529 ft | 372 kts | 299° |
| 2026-05-03 21:02 | 51.17777 | 8.13646 | 15962 ft | 365 kts | 299° |
| 2026-05-03 21:02 | 51.19149 | 8.10280 | 15436 ft | 358 kts | 299° |
| 2026-05-03 21:03 | 51.20488 | 8.06989 | 14916 ft | 351 kts | 300° |
| 2026-05-03 21:03 | 51.21802 | 8.03756 | 14365 ft | 347 kts | 300° |
| 2026-05-03 21:03 | 51.23092 | 8.00580 | 14008 ft | 336 kts | 300° |
| 2026-05-03 21:03 | 51.24347 | 7.97488 | 13515 ft | 332 kts | 300° |
| 2026-05-03 21:04 | 51.25594 | 7.94407 | 12895 ft | 331 kts | 299° |
| 2026-05-03 21:04 | 51.26837 | 7.91332 | 12250 ft | 332 kts | 299° |
| 2026-05-03 21:04 | 51.28090 | 7.88232 | 11686 ft | 329 kts | 299° |
| 2026-05-03 21:04 | 51.29319 | 7.85191 | 11128 ft | 327 kts | 300° |
| 2026-05-03 21:05 | 51.30542 | 7.82158 | 10576 ft | 324 kts | 300° |
| 2026-05-03 21:05 | 51.31739 | 7.79188 | 10337 ft | 311 kts | 300° |
| 2026-05-03 21:05 | 51.32885 | 7.76346 | 10190 ft | 297 kts | 300° |
| 2026-05-03 21:05 | 51.33979 | 7.73623 | 10039 ft | 285 kts | 300° |
| 2026-05-03 21:06 | 51.35028 | 7.71007 | 9723 ft | 280 kts | 300° |
| 2026-05-03 21:06 | 51.36072 | 7.68403 | 9339 ft | 277 kts | 300° |
| 2026-05-03 21:06 | 51.37107 | 7.65817 | 8947 ft | 275 kts | 300° |
| 2026-05-03 21:06 | 51.38131 | 7.63260 | 8553 ft | 273 kts | 300° |
| 2026-05-03 21:07 | 51.39143 | 7.60701 | 8157 ft | 271 kts | 296° |
| 2026-05-03 21:07 | 51.39836 | 7.57907 | 7752 ft | 266 kts | 282° |
| 2026-05-03 21:07 | 51.40234 | 7.55058 | 7371 ft | 263 kts | 277° |
| 2026-05-03 21:07 | 51.40614 | 7.52195 | 6976 ft | 263 kts | 282° |
| 2026-05-03 21:08 | 51.41093 | 7.49415 | 6594 ft | 261 kts | 282° |
| 2026-05-03 21:08 | 51.41326 | 7.46555 | 6177 ft | 257 kts | 265° |
| 2026-05-03 21:08 | 51.41269 | 7.43736 | 5952 ft | 251 kts | 274° |
| 2026-05-03 21:08 | 51.41598 | 7.41009 | 5803 ft | 243 kts | 277° |
| 2026-05-03 21:09 | 51.41779 | 7.38382 | 5651 ft | 232 kts | 272° |
| 2026-05-03 21:09 | 51.41785 | 7.35870 | 5501 ft | 222 kts | 264° |
| 2026-05-03 21:09 | 51.41652 | 7.33451 | 5350 ft | 214 kts | 263° |
| 2026-05-03 21:09 | 51.41533 | 7.31115 | 5193 ft | 206 kts | 263° |
| 2026-05-03 21:10 | 51.41419 | 7.28829 | 4961 ft | 204 kts | 263° |
| 2026-05-03 21:10 | 51.41306 | 7.26550 | 4806 ft | 206 kts | 263° |
| 2026-05-03 21:10 | 51.41192 | 7.24271 | 4645 ft | 207 kts | 263° |
| 2026-05-03 21:10 | 51.41062 | 7.21951 | 4483 ft | 210 kts | 263° |
| 2026-05-03 21:11 | 51.40914 | 7.19639 | 4321 ft | 209 kts | 263° |
| 2026-05-03 21:11 | 51.40756 | 7.17317 | 4156 ft | 208 kts | 263° |
| 2026-05-03 21:11 | 51.40601 | 7.15017 | 3994 ft | 207 kts | 263° |
| 2026-05-03 21:11 | 51.40446 | 7.12706 | 3830 ft | 207 kts | 263° |
| 2026-05-03 21:12 | 51.40294 | 7.10434 | 3669 ft | 207 kts | 263° |
| 2026-05-03 21:12 | 51.40142 | 7.08138 | 3520 ft | 206 kts | 263° |
| 2026-05-03 21:12 | 51.39994 | 7.05886 | 3396 ft | 198 kts | 263° |
| 2026-05-03 21:12 | 51.39846 | 7.03753 | 3244 ft | 187 kts | 262° |
| 2026-05-03 21:13 | 51.39687 | 7.01726 | 3101 ft | 182 kts | 261° |
| 2026-05-03 21:13 | 51.39387 | 6.99781 | 2993 ft | 181 kts | 242° |
| 2026-05-03 21:13 | 51.38694 | 6.98070 | 2997 ft | 184 kts | 238° |
| 2026-05-03 21:13 | 51.38027 | 6.96451 | 2947 ft | 169 kts | 234° |
| 2026-05-03 21:14 | 51.37334 | 6.94967 | 2738 ft | 163 kts | 234° |
| 2026-05-03 21:14 | 51.36655 | 6.93521 | 2534 ft | 163 kts | 233° |
| 2026-05-03 21:14 | 51.35968 | 6.92067 | 2314 ft | 163 kts | 233° |
| 2026-05-03 21:14 | 51.35294 | 6.90646 | 2099 ft | 158 kts | 233° |
| 2026-05-03 21:15 | 51.34647 | 6.89280 | 1897 ft | 148 kts | 233° |
| 2026-05-03 21:15 | 51.34045 | 6.88008 | 1693 ft | 145 kts | 233° |
| 2026-05-03 21:15 | 51.33438 | 6.86727 | 1490 ft | 145 kts | 233° |
| 2026-05-03 21:15 | 51.32824 | 6.85433 | 1281 ft | 146 kts | 233° |
| 2026-05-03 21:16 | 51.32426 | 6.84581 | 1153 ft | 146 kts | 233° |
| 2026-05-03 21:16 | 51.31616 | 6.82855 | 891 ft | 146 kts | 231° |
| 2026-05-03 21:16 | 51.30994 | 6.81544 | 675 ft | 148 kts | 232° |
| 2026-05-03 21:16 | 51.30368 | 6.80244 | 505 ft | 146 kts | 233° |
| 2026-05-03 21:17 | 51.29750 | 6.78951 | 319 ft | 147 kts | 232° |
| 2026-05-03 21:17 | 51.29328 | 6.78073 | 172 ft | 149 kts | 232° |
| 2026-05-03 21:17 | 51.28684 | 6.76718 | 154 ft | 73 kts | 233° |
| 2026-05-03 21:17 | 51.28478 | 6.76284 | 154 ft | 40 kts | 233° |
| 2026-05-03 21:18 | 51.28334 | 6.76057 | 154 ft | 17 kts | 205° |
| 2026-05-03 21:18 | 51.28238 | 6.75986 | 154 ft | 14 kts | 207° |
| 2026-05-03 21:18 | 51.28155 | 6.75919 | 154 ft | 12 kts | 207° |
| 2026-05-03 21:18 | 51.28123 | 6.75892 | 154 ft | 0 kts | 207° |
| 2026-05-03 21:19 | 51.28122 | 6.75892 | 154 ft | 0 kts | 207° |
| 2026-05-03 21:19 | 51.28102 | 6.75876 | 154 ft | 7 kts | 206° |
| 2026-05-03 21:19 | 51.28025 | 6.75827 | 154 ft | 14 kts | 190° |
| 2026-05-03 21:20 | 51.27936 | 6.75819 | 154 ft | 12 kts | 183° |
| 2026-05-03 21:20 | 51.27848 | 6.75815 | 154 ft | 13 kts | 181° |
| 2026-05-03 21:20 | 51.27751 | 6.75811 | 154 ft | 14 kts | 181° |
| 2026-05-03 21:20 | 51.27651 | 6.75812 | 154 ft | 13 kts | 171° |
| 2026-05-03 21:21 | 51.27573 | 6.75863 | 154 ft | 11 kts | 154° |
| 2026-05-03 21:21 | 51.27506 | 6.75908 | 154 ft | 10 kts | 159° |
| 2026-05-03 21:21 | 51.27468 | 6.75990 | 154 ft | 9 kts | 86° |
| 2026-05-03 21:21 | 51.27490 | 6.76092 | 154 ft | 9 kts | 68° |
| 2026-05-03 21:22 | 51.27512 | 6.76196 | 154 ft | 9 kts | 74° |
| 2026-05-03 21:22 | 51.27536 | 6.76300 | 154 ft | 10 kts | 69° |
| 2026-05-03 21:22 | 51.27557 | 6.76383 | 154 ft | 6 kts | 67° |
| 2026-05-03 21:22 | 51.27581 | 6.76404 | 154 ft | 3 kts | 341° |
| 2026-05-03 21:23 | 51.27604 | 6.76386 | 154 ft | 4 kts | 338° |
| 2026-05-03 21:23 | 51.27628 | 6.76372 | 154 ft | 1 kts | 340° |